createdAt,value
2024-03-23T00:00:54.282Z,89.74
2024-03-23T00:01:54.286Z,89.74
2024-03-23T00:02:54.297Z,89.74
2024-03-23T00:03:54.301Z,89.64
2024-03-23T00:04:54.307Z,89.64
2024-03-23T00:05:54.308Z,89.64
2024-03-23T00:06:54.307Z,89.64
2024-03-23T00:07:54.322Z,89.64
2024-03-23T00:08:54.333Z,90.15
2024-03-23T00:09:54.341Z,90.15
2024-03-23T00:10:54.352Z,90.15
2024-03-23T00:11:54.362Z,90.15
2024-03-23T00:12:54.365Z,90.15
2024-03-23T00:13:54.376Z,90.26
2024-03-23T00:14:54.378Z,90.26
2024-03-23T00:15:54.382Z,90.26
2024-03-23T00:16:54.411Z,90.26
2024-03-23T00:17:54.404Z,90.26
2024-03-23T00:18:54.411Z,90.19
2024-03-23T00:19:54.431Z,90.19
2024-03-23T00:20:54.440Z,90.19
2024-03-23T00:21:54.469Z,90.19
2024-03-23T00:22:54.464Z,90.19
2024-03-23T00:23:54.475Z,89.79
2024-03-23T00:24:54.483Z,89.79
2024-03-23T00:25:54.492Z,89.79
2024-03-23T00:26:54.492Z,89.79
2024-03-23T00:27:54.502Z,89.79
2024-03-23T00:28:54.500Z,90.09
2024-03-23T00:29:54.504Z,90.09
2024-03-23T00:30:54.506Z,90.09
2024-03-23T00:31:54.514Z,90.09
2024-03-23T00:32:54.525Z,90.09
2024-03-23T00:33:54.537Z,89.99
2024-03-23T00:34:54.540Z,89.99
2024-03-23T00:35:54.558Z,89.99
2024-03-23T00:36:54.568Z,89.99
2024-03-23T00:37:54.570Z,89.99
2024-03-23T00:38:54.575Z,90.19
2024-03-23T00:39:54.617Z,90.19
2024-03-23T00:40:54.583Z,90.19
2024-03-23T00:41:55.341Z,90.19
2024-03-23T00:42:54.597Z,90.19
2024-03-23T00:43:54.611Z,89.99
2024-03-23T00:44:54.643Z,89.99
2024-03-23T00:45:54.640Z,89.99
2024-03-23T00:46:54.662Z,89.99
2024-03-23T00:47:54.661Z,89.99
2024-03-23T00:48:54.670Z,90.71
2024-03-23T00:49:54.677Z,90.71
2024-03-23T00:50:54.672Z,90.71
2024-03-23T00:51:54.681Z,90.71
2024-03-23T00:52:54.679Z,90.71
2024-03-23T00:53:54.703Z,90.61
2024-03-23T00:54:54.700Z,90.61
2024-03-23T00:55:54.716Z,90.61
2024-03-23T00:56:54.729Z,90.61
2024-03-23T00:57:54.740Z,90.61
2024-03-23T00:58:54.768Z,90.51
2024-03-23T00:59:54.754Z,90.51
2024-03-23T01:00:54.764Z,90.51
2024-03-23T01:01:54.775Z,90.51
2024-03-23T01:02:54.776Z,90.51
2024-03-23T01:03:54.780Z,90.44
2024-03-23T01:04:54.784Z,90.44
2024-03-23T01:05:54.799Z,90.44
2024-03-23T01:06:54.799Z,90.44
2024-03-23T01:07:54.840Z,90.44
2024-03-23T01:08:54.814Z,90.85
2024-03-23T01:09:54.841Z,90.85
2024-03-23T01:10:54.849Z,90.85
2024-03-23T01:11:54.850Z,90.85
2024-03-23T01:12:54.894Z,90.85
2024-03-23T01:13:54.894Z,90.96
2024-03-23T01:14:54.898Z,90.96
2024-03-23T01:15:54.900Z,90.96
2024-03-23T01:16:54.895Z,90.96
2024-03-23T01:17:54.894Z,90.96
2024-03-23T01:18:54.896Z,90.65
2024-03-23T01:19:54.919Z,90.65
2024-03-23T01:20:54.934Z,90.65
2024-03-23T01:21:54.972Z,90.65
2024-03-23T01:22:54.945Z,90.65
2024-03-23T01:23:54.954Z,90.24
2024-03-23T01:24:54.972Z,90.24
2024-03-23T01:25:54.984Z,90.24
2024-03-23T01:26:54.998Z,90.24
2024-03-23T01:27:54.997Z,90.24
2024-03-23T01:28:55.002Z,90.44
2024-03-23T01:29:55.008Z,90.44
2024-03-23T01:30:55.065Z,90.44
2024-03-23T01:31:55.014Z,90.44
2024-03-23T01:32:55.025Z,90.44
2024-03-23T01:33:55.045Z,90.13
2024-03-23T01:34:55.055Z,90.13
2024-03-23T01:35:55.079Z,90.13
2024-03-23T01:36:55.074Z,90.13
2024-03-23T01:37:55.090Z,90.13
2024-03-23T01:38:55.089Z,90.13
2024-03-23T01:39:55.115Z,90.13
2024-03-23T01:40:55.124Z,90.13
2024-03-23T01:41:55.106Z,90.13
2024-03-23T01:42:55.106Z,90.13
2024-03-23T01:43:55.117Z,90.44
2024-03-23T01:44:55.132Z,90.44
2024-03-23T01:45:55.138Z,90.44
2024-03-23T01:46:55.158Z,90.44
2024-03-23T01:47:55.163Z,90.44
2024-03-23T01:48:55.168Z,90.55
2024-03-23T01:49:55.195Z,90.55
2024-03-23T01:50:55.186Z,90.55
2024-03-23T01:51:55.205Z,90.55
2024-03-23T01:52:55.198Z,90.55
2024-03-23T01:53:55.210Z,90.44
2024-03-23T01:54:55.222Z,90.44
2024-03-23T01:55:55.222Z,90.44
2024-03-23T01:56:55.240Z,90.44
2024-03-23T01:57:55.246Z,90.44
2024-03-23T01:58:55.267Z,90.65
2024-03-23T01:59:55.289Z,90.65
2024-03-23T02:00:55.285Z,90.65
2024-03-23T02:01:55.297Z,90.65
2024-03-23T02:02:55.300Z,90.65
2024-03-23T02:03:55.315Z,90.13
2024-03-23T02:04:55.307Z,90.13
2024-03-23T02:05:55.319Z,90.13
2024-03-23T02:06:55.332Z,90.13
2024-03-23T02:07:55.331Z,90.13
2024-03-23T02:08:55.372Z,90.44
2024-03-23T02:09:55.379Z,90.44
2024-03-23T02:10:55.367Z,90.44
2024-03-23T02:11:55.377Z,90.44
2024-03-23T02:12:55.380Z,90.44
2024-03-23T02:13:55.396Z,90.03
2024-03-23T02:14:55.399Z,90.03
2024-03-23T02:15:55.413Z,90.03
2024-03-23T02:16:55.423Z,90.03
2024-03-23T02:17:55.432Z,90.03
2024-03-23T02:18:55.419Z,90.03
2024-03-23T02:19:55.436Z,90.03
2024-03-23T02:20:55.439Z,90.03
2024-03-23T02:21:55.474Z,90.03
2024-03-23T02:22:55.487Z,90.03
2024-03-23T02:23:55.474Z,90.03
2024-03-23T02:24:55.482Z,90.03
2024-03-23T02:25:55.488Z,90.03
2024-03-23T02:26:55.490Z,90.03
2024-03-23T02:27:55.499Z,90.03
2024-03-23T02:28:55.507Z,90.03
2024-03-23T02:29:55.503Z,90.03
2024-03-23T02:30:55.511Z,90.03
2024-03-23T02:31:55.540Z,90.03
2024-03-23T02:32:55.535Z,90.03
2024-03-23T02:33:55.543Z,90.24
2024-03-23T02:34:55.543Z,90.24
2024-03-23T02:35:55.557Z,90.24
2024-03-23T02:36:55.591Z,90.24
2024-03-23T02:37:55.574Z,90.24
2024-03-23T02:38:55.585Z,90.07
2024-03-23T02:39:55.582Z,90.07
2024-03-23T02:40:55.600Z,90.07
2024-03-23T02:41:55.597Z,90.07
2024-03-23T02:42:55.599Z,90.07
2024-03-23T02:43:55.605Z,90.69
2024-03-23T02:44:55.620Z,90.69
2024-03-23T02:45:55.649Z,90.69
2024-03-23T02:46:55.671Z,90.69
2024-03-23T02:47:55.670Z,90.69
2024-03-23T02:48:55.666Z,90.79
2024-03-23T02:49:55.678Z,90.79
2024-03-23T02:50:55.701Z,90.79
2024-03-23T02:51:55.685Z,90.79
2024-03-23T02:52:55.691Z,90.79
2024-03-23T02:53:55.705Z,90.90
2024-03-23T02:54:55.696Z,90.90
2024-03-23T02:55:55.712Z,90.90
2024-03-23T02:56:55.738Z,90.90
2024-03-23T02:57:55.737Z,90.90
2024-03-23T02:58:55.766Z,90.63
2024-03-23T02:59:55.766Z,90.63
2024-03-23T03:00:55.770Z,90.63
2024-03-23T03:01:55.777Z,90.63
2024-03-23T03:02:55.796Z,90.63
2024-03-23T03:03:55.794Z,90.73
2024-03-23T03:04:55.811Z,90.73
2024-03-23T03:05:55.800Z,90.73
2024-03-23T03:06:55.797Z,90.73
2024-03-23T03:07:55.804Z,90.73
2024-03-23T03:08:55.830Z,90.07
2024-03-23T03:09:55.840Z,90.07
2024-03-23T03:10:55.858Z,90.07
2024-03-23T03:11:55.866Z,90.07
2024-03-23T03:12:55.861Z,90.07
2024-03-23T03:13:55.876Z,89.66
2024-03-23T03:14:55.886Z,89.66
2024-03-23T03:15:55.877Z,89.66
2024-03-23T03:16:55.878Z,89.66
2024-03-23T03:17:55.887Z,89.66
2024-03-23T03:18:55.900Z,90.01
2024-03-23T03:19:55.919Z,90.01
2024-03-23T03:20:55.919Z,90.01
2024-03-23T03:21:55.936Z,90.01
2024-03-23T03:22:55.994Z,90.01
2024-03-23T03:23:55.953Z,90.32
2024-03-23T03:24:55.980Z,90.32
2024-03-23T03:25:55.974Z,90.32
2024-03-23T03:26:55.980Z,90.32
2024-03-23T03:27:55.996Z,90.32
2024-03-23T03:28:56.036Z,90.01
2024-03-23T03:29:56.024Z,90.01
2024-03-23T03:30:56.004Z,90.01
2024-03-23T03:31:56.026Z,90.01
2024-03-23T03:32:56.063Z,90.01
2024-03-23T03:33:56.063Z,90.01
2024-03-23T03:34:56.049Z,90.01
2024-03-23T03:35:56.081Z,90.01
2024-03-23T03:36:56.092Z,90.01
2024-03-23T03:37:56.076Z,90.01
2024-03-23T03:38:56.092Z,90.32
2024-03-23T03:39:56.092Z,90.32
2024-03-23T03:40:56.096Z,90.32
2024-03-23T03:41:56.118Z,90.32
2024-03-23T03:42:56.864Z,90.32
2024-03-23T03:43:56.120Z,90.11
2024-03-23T03:44:56.124Z,90.11
2024-03-23T03:45:56.138Z,90.11
2024-03-23T03:46:56.274Z,90.11
2024-03-23T03:47:56.157Z,90.11
2024-03-23T03:48:56.164Z,90.16
2024-03-23T03:49:56.174Z,90.16
2024-03-23T03:50:56.179Z,90.16
2024-03-23T03:51:56.194Z,90.16
2024-03-23T03:52:56.201Z,90.16
2024-03-23T03:53:56.215Z,90.11
2024-03-23T03:54:56.212Z,90.11
2024-03-23T03:55:56.231Z,90.11
2024-03-23T03:56:56.236Z,90.11
2024-03-23T03:57:56.241Z,90.11
2024-03-23T03:58:56.257Z,90.43
2024-03-23T03:59:56.262Z,90.43
2024-03-23T04:00:56.307Z,90.43
2024-03-23T04:01:56.278Z,90.43
2024-03-23T04:02:56.280Z,90.43
2024-03-23T04:03:56.291Z,89.91
2024-03-23T04:04:56.306Z,89.91
2024-03-23T04:05:56.312Z,89.91
2024-03-23T04:06:56.318Z,89.91
2024-03-23T04:07:56.316Z,89.91
2024-03-23T04:08:56.332Z,90.11
2024-03-23T04:09:56.349Z,90.11
2024-03-23T04:10:56.343Z,90.11
2024-03-23T04:11:56.367Z,90.11
2024-03-23T04:12:56.368Z,90.11
2024-03-23T04:13:56.385Z,90.11
2024-03-23T04:14:56.402Z,90.11
2024-03-23T04:15:56.396Z,90.11
2024-03-23T04:16:56.404Z,90.11
2024-03-23T04:17:56.400Z,91.19
2024-03-23T04:18:56.413Z,91.19
2024-03-23T04:19:56.429Z,91.19
2024-03-23T04:20:56.459Z,91.19
2024-03-23T04:21:56.441Z,91.19
2024-03-23T04:22:56.444Z,91.29
2024-03-23T04:23:56.480Z,91.29
2024-03-23T04:24:56.466Z,91.29
2024-03-23T04:25:56.472Z,91.29
2024-03-23T04:26:56.479Z,91.29
2024-03-23T04:27:56.487Z,91.19
2024-03-23T04:28:56.499Z,91.19
2024-03-23T04:29:56.500Z,91.19
2024-03-23T04:30:56.501Z,91.19
2024-03-23T04:31:56.501Z,91.19
2024-03-23T04:32:56.518Z,90.88
2024-03-23T04:33:56.529Z,90.88
2024-03-23T04:34:56.542Z,90.88
2024-03-23T04:35:56.557Z,90.88
2024-03-23T04:36:56.569Z,90.88
2024-03-23T04:37:56.584Z,91.13
2024-03-23T04:38:56.591Z,91.13
2024-03-23T04:39:56.592Z,91.13
2024-03-23T04:40:56.603Z,91.13
2024-03-23T04:41:56.609Z,91.13
2024-03-23T04:42:56.615Z,91.23
2024-03-23T04:43:56.617Z,91.23
2024-03-23T04:44:56.620Z,91.23
2024-03-23T04:45:56.639Z,91.23
2024-03-23T04:46:56.642Z,91.23
2024-03-23T04:47:56.668Z,91.19
2024-03-23T04:48:56.679Z,91.19
2024-03-23T04:49:56.680Z,91.19
2024-03-23T04:50:56.683Z,91.19
2024-03-23T04:51:56.698Z,91.19
2024-03-23T04:52:56.699Z,90.98
2024-03-23T04:53:56.710Z,90.98
2024-03-23T04:54:56.717Z,90.98
2024-03-23T04:55:56.728Z,90.98
2024-03-23T04:56:56.733Z,90.98
2024-03-23T04:57:56.734Z,91.13
2024-03-23T04:58:56.735Z,91.13
2024-03-23T04:59:56.749Z,91.13
2024-03-23T05:00:56.760Z,91.13
2024-03-23T05:01:56.776Z,91.13
2024-03-23T05:02:56.786Z,90.98
2024-03-23T05:03:56.780Z,90.98
2024-03-23T05:04:56.802Z,90.98
2024-03-23T05:05:56.812Z,90.98
2024-03-23T05:06:56.824Z,90.98
2024-03-23T05:07:56.816Z,90.82
2024-03-23T05:08:56.815Z,90.82
2024-03-23T05:09:56.831Z,90.82
2024-03-23T05:10:56.865Z,90.82
2024-03-23T05:11:56.854Z,90.82
2024-03-23T05:12:56.870Z,91.02
2024-03-23T05:13:56.875Z,91.02
2024-03-23T05:14:56.891Z,91.02
2024-03-23T05:15:56.913Z,91.02
2024-03-23T05:16:56.903Z,91.02
2024-03-23T05:17:56.910Z,90.82
2024-03-23T05:18:56.914Z,90.82
2024-03-23T05:19:59.652Z,90.82
2024-03-23T05:20:56.936Z,90.82
2024-03-23T05:21:56.929Z,90.82
2024-03-23T05:22:56.942Z,90.92
2024-03-23T05:23:56.966Z,90.92
2024-03-23T05:24:56.985Z,90.92
2024-03-23T05:25:56.975Z,90.92
2024-03-23T05:26:56.988Z,90.92
2024-03-23T05:27:56.998Z,91.13
2024-03-23T05:28:57.018Z,91.13
2024-03-23T05:29:57.061Z,91.13
2024-03-23T05:30:57.042Z,91.13
2024-03-23T05:31:57.053Z,91.13
2024-03-23T05:32:57.058Z,91.13
2024-03-23T05:33:57.058Z,91.13
2024-03-23T05:34:57.061Z,91.13
2024-03-23T05:35:57.056Z,91.13
2024-03-23T05:36:57.065Z,91.13
2024-03-23T05:37:57.087Z,90.92
2024-03-23T05:38:57.113Z,90.92
2024-03-23T05:39:57.110Z,90.92
2024-03-23T05:40:57.129Z,90.92
2024-03-23T05:41:57.140Z,90.92
2024-03-23T05:42:57.196Z,90.92
2024-03-23T05:43:57.164Z,90.92
2024-03-23T05:44:57.151Z,90.92
2024-03-23T05:45:57.159Z,90.92
2024-03-23T05:46:57.165Z,90.92
2024-03-23T05:47:57.165Z,90.92
2024-03-23T05:48:57.172Z,90.92
2024-03-23T05:49:57.187Z,90.92
2024-03-23T05:50:57.202Z,90.92
2024-03-23T05:51:57.213Z,90.92
2024-03-23T05:52:57.252Z,90.77
2024-03-23T05:53:57.236Z,90.77
2024-03-23T05:54:57.246Z,90.77
2024-03-23T05:55:57.257Z,90.77
2024-03-23T05:56:57.271Z,90.77
2024-03-23T05:57:57.282Z,90.77
2024-03-23T05:58:57.282Z,90.77
2024-03-23T05:59:57.284Z,90.77
2024-03-23T06:00:57.279Z,90.77
2024-03-23T06:01:57.290Z,90.77
2024-03-23T06:02:57.287Z,90.98
2024-03-23T06:03:57.304Z,90.98
2024-03-23T06:04:57.324Z,90.98
2024-03-23T06:05:57.325Z,90.98
2024-03-23T06:06:57.359Z,90.98
2024-03-23T06:08:00.417Z,91.23
2024-03-23T06:08:57.364Z,91.23
2024-03-23T06:09:57.367Z,91.23
2024-03-23T06:10:57.396Z,91.23
2024-03-23T06:11:57.406Z,91.23
2024-03-23T06:12:57.399Z,90.71
2024-03-23T06:13:57.404Z,90.71
2024-03-23T06:14:57.407Z,90.71
2024-03-23T06:15:57.408Z,90.71
2024-03-23T06:16:57.424Z,90.71
2024-03-23T06:17:57.463Z,90.67
2024-03-23T06:18:57.457Z,90.67
2024-03-23T06:19:57.461Z,90.67
2024-03-23T06:20:57.491Z,90.67
2024-03-23T06:21:57.482Z,90.67
2024-03-23T06:22:57.489Z,90.92
2024-03-23T06:23:57.500Z,90.92
2024-03-23T06:24:57.527Z,90.92
2024-03-23T06:25:57.548Z,90.92
2024-03-23T06:26:57.529Z,90.92
2024-03-23T06:27:57.534Z,91.13
2024-03-23T06:28:57.549Z,91.13
2024-03-23T06:29:57.538Z,91.13
2024-03-23T06:30:57.554Z,91.13
2024-03-23T06:31:57.566Z,91.13
2024-03-23T06:32:57.605Z,90.51
2024-03-23T06:33:57.601Z,90.51
2024-03-23T06:34:57.618Z,90.51
2024-03-23T06:35:57.607Z,90.51
2024-03-23T06:36:57.613Z,90.51
2024-03-23T06:37:57.624Z,90.96
2024-03-23T06:38:57.629Z,90.96
2024-03-23T06:39:57.669Z,90.96
2024-03-23T06:40:57.646Z,90.96
2024-03-23T06:41:57.640Z,90.96
2024-03-23T06:42:57.657Z,90.65
2024-03-23T06:43:57.666Z,90.65
2024-03-23T06:44:57.682Z,90.65
2024-03-23T06:45:57.686Z,90.65
2024-03-23T06:46:57.727Z,90.65
2024-03-23T06:47:57.730Z,90.86
2024-03-23T06:48:57.739Z,90.86
2024-03-23T06:49:57.739Z,90.86
2024-03-23T06:50:57.757Z,90.86
2024-03-23T06:51:57.749Z,90.86
2024-03-23T06:52:57.751Z,90.96
2024-03-23T06:53:57.788Z,90.96
2024-03-23T06:54:57.762Z,90.96
2024-03-23T06:55:57.768Z,90.96
2024-03-23T06:56:57.781Z,90.96
2024-03-23T06:57:57.811Z,90.86
2024-03-23T06:58:57.805Z,90.86
2024-03-23T06:59:57.818Z,90.86
2024-03-23T07:00:57.828Z,90.86
2024-03-23T07:01:57.840Z,90.86
2024-03-23T07:02:57.878Z,90.65
2024-03-23T07:03:57.864Z,90.65
2024-03-23T07:04:57.874Z,90.65
2024-03-23T07:05:57.885Z,90.65
2024-03-23T07:06:57.884Z,90.65
2024-03-23T07:07:57.908Z,90.44
2024-03-23T07:08:57.889Z,90.44
2024-03-23T07:09:57.899Z,90.44
2024-03-23T07:10:57.914Z,90.44
2024-03-23T07:11:57.921Z,90.44
2024-03-23T07:12:57.932Z,89.99
2024-03-23T07:13:57.949Z,89.99
2024-03-23T07:14:57.962Z,89.99
2024-03-23T07:15:57.970Z,89.99
2024-03-23T07:16:57.987Z,89.99
2024-03-23T07:17:57.983Z,90.30
2024-03-23T07:18:57.982Z,90.30
2024-03-23T07:19:57.987Z,90.30
2024-03-23T07:20:57.999Z,90.30
2024-03-23T07:21:58.014Z,90.30
2024-03-23T07:22:58.000Z,90.41
2024-03-23T07:23:58.015Z,90.41
2024-03-23T07:24:58.023Z,89.38
2024-03-23T07:25:58.039Z,89.38
2024-03-23T07:26:58.039Z,89.38
2024-03-23T07:27:59.838Z,89.38
2024-03-23T07:28:58.051Z,89.38
2024-03-23T07:29:58.066Z,89.54
2024-03-23T07:30:58.086Z,89.54
2024-03-23T07:31:58.075Z,89.54
2024-03-23T07:32:58.082Z,89.54
2024-03-23T07:33:58.070Z,89.54
2024-03-23T07:34:58.087Z,89.64
2024-03-23T07:35:58.119Z,89.64
2024-03-23T07:36:58.112Z,89.64
2024-03-23T07:37:58.111Z,89.64
2024-03-23T07:39:03.750Z,89.64
2024-03-23T07:39:58.143Z,89.74
2024-03-23T07:40:58.144Z,88.30
2024-03-23T07:41:58.135Z,88.30
2024-03-23T07:42:58.137Z,88.30
2024-03-23T07:43:58.147Z,89.33
2024-03-23T07:44:58.178Z,89.33
2024-03-23T07:45:58.159Z,89.33
2024-03-23T07:46:58.171Z,89.33
2024-03-23T07:47:58.175Z,89.33
2024-03-23T07:48:58.200Z,89.64
2024-03-23T07:49:58.202Z,89.64
2024-03-23T07:50:58.206Z,89.64
2024-03-23T07:51:58.202Z,89.64
2024-03-23T07:52:58.217Z,89.64
2024-03-23T07:53:58.223Z,89.23
2024-03-23T07:54:58.222Z,89.23
2024-03-23T07:55:58.223Z,89.23
2024-03-23T07:56:58.229Z,89.23
2024-03-23T07:57:58.245Z,89.23
2024-03-23T07:58:58.271Z,88.57
2024-03-23T07:59:58.255Z,88.57
2024-03-23T08:00:58.259Z,88.57
2024-03-23T08:01:59.948Z,88.57
2024-03-23T08:02:58.286Z,88.57
2024-03-23T08:03:58.305Z,89.08
2024-03-23T08:04:58.295Z,89.08
2024-03-23T08:05:58.299Z,89.08
2024-03-23T08:06:58.342Z,89.08
2024-03-23T08:07:58.302Z,89.08
2024-03-23T08:08:58.308Z,88.67
2024-03-23T08:09:58.319Z,88.67
2024-03-23T08:10:58.332Z,88.67
2024-03-23T08:11:58.343Z,88.67
2024-03-23T08:12:58.384Z,88.67
2024-03-23T08:13:58.360Z,88.20
2024-03-23T08:14:58.375Z,88.20
2024-03-23T08:15:58.379Z,88.20
2024-03-23T08:16:58.394Z,88.20
2024-03-23T08:17:58.409Z,88.20
2024-03-23T08:18:58.389Z,88.41
2024-03-23T08:19:58.400Z,88.41
2024-03-23T08:20:58.421Z,88.41
2024-03-23T08:21:58.417Z,88.41
2024-03-23T08:22:58.429Z,88.41
2024-03-23T08:23:58.437Z,88.51
2024-03-23T08:24:58.473Z,88.51
2024-03-23T08:25:58.461Z,88.51
2024-03-23T08:26:58.520Z,88.51
2024-03-23T08:27:58.483Z,88.51
2024-03-23T08:28:58.482Z,88.45
2024-03-23T08:29:58.487Z,88.45
2024-03-23T08:30:58.491Z,88.45
2024-03-23T08:31:58.512Z,88.45
2024-03-23T08:32:58.505Z,88.45
2024-03-23T08:33:58.511Z,88.30
2024-03-23T08:34:58.522Z,88.30
2024-03-23T08:35:58.527Z,89.79
2024-03-23T08:36:58.533Z,88.65
2024-03-23T08:37:58.540Z,89.74
2024-03-23T08:38:58.546Z,89.74
2024-03-23T08:39:58.555Z,88.72
2024-03-23T08:40:58.572Z,88.72
2024-03-23T08:41:58.564Z,88.72
2024-03-23T08:42:58.571Z,88.72
2024-03-23T08:43:58.570Z,88.72
2024-03-23T08:44:58.593Z,88.75
2024-03-23T08:45:58.619Z,89.85
2024-03-23T08:46:58.611Z,89.85
2024-03-23T08:47:58.621Z,89.85
2024-03-23T08:48:58.637Z,88.75
2024-03-23T08:49:58.636Z,88.75
2024-03-23T08:50:58.639Z,88.75
2024-03-23T08:51:58.638Z,89.79
2024-03-23T08:52:58.647Z,88.55
2024-03-23T08:53:58.660Z,89.89
2024-03-23T08:54:58.678Z,89.89
2024-03-23T08:55:58.672Z,88.75
2024-03-23T08:56:58.690Z,88.75
2024-03-23T08:57:58.695Z,88.75
2024-03-23T08:58:58.704Z,89.79
2024-03-23T08:59:58.725Z,89.79
2024-03-23T09:00:58.723Z,89.79
2024-03-23T09:01:58.728Z,89.79
2024-03-23T09:02:58.736Z,89.79
2024-03-23T09:03:58.743Z,89.58
2024-03-23T09:04:58.748Z,89.58
2024-03-23T09:05:58.756Z,89.58
2024-03-23T09:06:58.765Z,89.58
2024-03-23T09:07:58.771Z,89.58
2024-03-23T09:08:58.774Z,89.62
2024-03-23T09:09:58.784Z,89.62
2024-03-23T09:10:58.796Z,89.62
2024-03-23T09:11:58.813Z,89.62
2024-03-23T09:12:58.815Z,89.62
2024-03-23T09:13:58.827Z,89.62
2024-03-23T09:14:58.826Z,89.62
2024-03-23T09:15:58.852Z,89.62
2024-03-23T09:16:58.843Z,89.62
2024-03-23T09:17:58.860Z,89.62
2024-03-23T09:18:58.848Z,89.72
2024-03-23T09:19:58.856Z,89.72
2024-03-23T09:20:58.869Z,89.72
2024-03-23T09:21:58.887Z,89.72
2024-03-23T09:22:58.900Z,89.72
2024-03-23T09:23:58.906Z,90.04
2024-03-23T09:24:58.910Z,90.04
2024-03-23T09:25:58.916Z,90.04
2024-03-23T09:26:58.930Z,90.04
2024-03-23T09:27:58.933Z,90.04
2024-03-23T09:28:58.936Z,89.72
2024-03-23T09:29:58.952Z,89.72
2024-03-23T09:30:58.953Z,89.72
2024-03-23T09:31:58.966Z,89.72
2024-03-23T09:32:58.975Z,89.72
2024-03-23T09:33:58.968Z,89.52
2024-03-23T09:34:58.979Z,89.52
2024-03-23T09:35:58.992Z,89.52
2024-03-23T09:36:59.035Z,89.52
2024-03-23T09:37:59.013Z,89.52
2024-03-23T09:38:59.024Z,89.83
2024-03-23T09:39:59.046Z,88.38
2024-03-23T09:40:59.048Z,89.83
2024-03-23T09:41:59.052Z,89.83
2024-03-23T09:42:59.063Z,89.83
2024-03-23T09:43:59.058Z,89.83
2024-03-23T09:44:59.062Z,89.83
2024-03-23T09:45:59.089Z,89.72
2024-03-23T09:46:59.091Z,88.49
2024-03-23T09:47:59.096Z,88.49
2024-03-23T09:48:59.112Z,88.49
2024-03-23T09:49:59.122Z,88.49
2024-03-23T09:50:59.125Z,89.83
2024-03-23T09:51:59.132Z,88.53
2024-03-23T09:52:59.144Z,88.53
2024-03-23T09:53:59.145Z,88.53
2024-03-23T09:54:59.148Z,88.53
2024-03-23T09:55:59.152Z,88.53
2024-03-23T09:56:59.158Z,88.22
2024-03-23T09:57:59.156Z,88.22
2024-03-23T09:58:59.177Z,88.22
2024-03-23T09:59:59.203Z,88.22
2024-03-23T10:00:59.218Z,88.22
2024-03-23T10:01:59.223Z,88.49
2024-03-23T10:02:59.230Z,87.39
2024-03-23T10:03:59.237Z,87.39
2024-03-23T10:04:59.260Z,87.39
2024-03-23T10:05:59.261Z,87.39
2024-03-23T10:06:59.265Z,87.39
2024-03-23T10:07:59.271Z,87.76
2024-03-23T10:08:59.273Z,87.76
2024-03-23T10:09:59.285Z,87.76
2024-03-23T10:10:59.288Z,87.76
2024-03-23T10:11:59.309Z,87.76
2024-03-23T10:12:59.326Z,88.42
2024-03-23T10:14:00.717Z,88.42
2024-03-23T10:14:59.366Z,88.42
2024-03-23T10:15:59.369Z,88.42
2024-03-23T10:16:59.364Z,87.35
2024-03-23T10:17:59.381Z,88.38
2024-03-23T10:18:59.381Z,88.38
2024-03-23T10:19:59.375Z,87.35
2024-03-23T10:20:59.379Z,87.35
2024-03-23T10:21:59.391Z,87.35
2024-03-23T10:22:59.405Z,87.35
2024-03-23T10:23:59.411Z,88.49
2024-03-23T10:24:59.425Z,88.49
2024-03-23T10:25:59.440Z,87.25
2024-03-23T10:26:59.449Z,87.25
2024-03-23T10:27:59.464Z,86.20
2024-03-23T10:28:59.462Z,86.20
2024-03-23T10:29:59.459Z,86.20
2024-03-23T10:30:59.471Z,87.23
2024-03-23T10:31:59.470Z,87.23
2024-03-23T10:32:59.506Z,87.23
2024-03-23T10:33:59.496Z,88.26
2024-03-23T10:34:59.506Z,86.92
2024-03-23T10:35:59.525Z,86.92
2024-03-23T10:36:59.530Z,86.92
2024-03-23T10:37:59.537Z,86.92
2024-03-23T10:38:59.548Z,86.92
2024-03-23T10:39:59.552Z,86.46
2024-03-23T10:40:59.557Z,86.46
2024-03-23T10:41:59.585Z,86.46
2024-03-23T10:42:59.572Z,86.46
2024-03-23T10:43:59.575Z,86.46
2024-03-23T10:44:59.599Z,88.26
2024-03-23T10:45:59.612Z,88.11
2024-03-23T10:46:59.632Z,88.11
2024-03-23T10:47:59.631Z,88.11
2024-03-23T10:48:59.634Z,88.11
2024-03-23T10:49:59.653Z,88.11
2024-03-23T10:50:59.650Z,87.60
2024-03-23T10:51:59.660Z,87.60
2024-03-23T10:52:59.657Z,87.60
2024-03-23T10:53:59.662Z,87.60
2024-03-23T10:54:59.675Z,86.57
2024-03-23T10:55:59.720Z,87.70
2024-03-23T10:56:59.693Z,87.70
2024-03-23T10:57:59.706Z,87.70
2024-03-23T10:58:59.717Z,87.70
2024-03-23T10:59:59.721Z,87.70
2024-03-23T11:00:59.756Z,88.18
2024-03-23T11:01:59.733Z,88.18
2024-03-23T11:02:59.737Z,88.18
2024-03-23T11:03:59.739Z,88.18
2024-03-23T11:04:59.762Z,88.18
2024-03-23T11:05:59.758Z,87.76
2024-03-23T11:06:59.771Z,87.76
2024-03-23T11:07:59.784Z,87.76
2024-03-23T11:08:59.797Z,87.76
2024-03-23T11:09:59.806Z,87.76
2024-03-23T11:10:59.808Z,87.97
2024-03-23T11:11:59.812Z,87.97
2024-03-23T11:12:59.823Z,87.97
2024-03-23T11:13:59.826Z,87.97
2024-03-23T11:14:59.846Z,87.97
2024-03-23T11:15:59.824Z,87.15
2024-03-23T11:16:59.833Z,87.15
2024-03-23T11:17:59.836Z,87.15
2024-03-23T11:18:59.852Z,87.15
2024-03-23T11:19:59.893Z,88.28
2024-03-23T11:20:59.876Z,88.28
2024-03-23T11:21:59.888Z,88.28
2024-03-23T11:22:59.897Z,88.28
2024-03-23T11:23:59.918Z,88.28
2024-03-23T11:24:59.914Z,88.28
2024-03-23T11:25:59.916Z,88.28
2024-03-23T11:26:59.917Z,88.28
2024-03-23T11:27:59.925Z,88.28
2024-03-23T11:28:59.938Z,88.28
2024-03-23T11:29:59.944Z,88.69
2024-03-23T11:30:59.986Z,88.69
2024-03-23T11:31:59.963Z,88.69
2024-03-23T11:32:59.971Z,88.69
2024-03-23T11:33:59.979Z,88.69
2024-03-23T11:35:00.013Z,88.65
2024-03-23T11:35:59.997Z,88.65
2024-03-23T11:37:00.010Z,88.65
2024-03-23T11:38:00.025Z,88.65
2024-03-23T11:39:00.019Z,88.65
2024-03-23T11:40:00.046Z,88.14
2024-03-23T11:41:00.030Z,88.14
2024-03-23T11:42:00.042Z,88.14
2024-03-23T11:43:00.059Z,88.14
2024-03-23T11:44:00.053Z,88.14
2024-03-23T11:45:00.051Z,87.79
2024-03-23T11:46:00.059Z,87.79
2024-03-23T11:47:00.078Z,87.79
2024-03-23T11:48:00.098Z,87.79
2024-03-23T11:49:00.096Z,88.92
2024-03-23T11:50:00.181Z,87.79
2024-03-23T11:51:00.106Z,87.79
2024-03-23T11:52:00.125Z,87.79
2024-03-23T11:53:00.151Z,87.79
2024-03-23T11:54:00.150Z,87.79
2024-03-23T11:55:00.178Z,87.58
2024-03-23T11:56:00.150Z,87.58
2024-03-23T11:57:00.192Z,87.58
2024-03-23T11:58:00.163Z,87.58
2024-03-23T11:59:00.192Z,87.58
2024-03-23T12:00:00.227Z,88.20
2024-03-23T12:01:00.205Z,88.20
2024-03-23T12:02:00.195Z,88.20
2024-03-23T12:03:00.207Z,88.20
2024-03-23T12:04:00.207Z,88.20
2024-03-23T12:05:00.255Z,87.85
2024-03-23T12:06:00.241Z,87.85
2024-03-23T12:07:00.216Z,87.85
2024-03-23T12:08:00.229Z,87.85
2024-03-23T12:09:00.252Z,87.85
2024-03-23T12:10:00.315Z,87.91
2024-03-23T12:11:00.269Z,87.91
2024-03-23T12:12:00.280Z,87.91
2024-03-23T12:13:00.268Z,86.88
2024-03-23T12:14:00.276Z,86.88
2024-03-23T12:15:00.292Z,86.88
2024-03-23T12:16:00.287Z,88.02
2024-03-23T12:17:00.295Z,88.02
2024-03-23T12:18:00.300Z,88.02
2024-03-23T12:19:00.301Z,86.88
2024-03-23T12:20:00.366Z,86.88
2024-03-23T12:21:00.320Z,86.88
2024-03-23T12:22:00.364Z,86.88
2024-03-23T12:23:00.337Z,88.02
2024-03-23T12:24:00.351Z,86.78
2024-03-23T12:25:00.443Z,86.78
2024-03-23T12:26:00.398Z,87.91
2024-03-23T12:27:00.382Z,87.91
2024-03-23T12:28:00.376Z,87.91
2024-03-23T12:29:00.394Z,87.91
2024-03-23T12:30:00.393Z,87.91
2024-03-23T12:31:00.393Z,87.97
2024-03-23T12:32:01.604Z,86.43
2024-03-23T12:33:00.415Z,86.43
2024-03-23T12:34:00.455Z,87.67
2024-03-23T12:35:00.425Z,86.12
2024-03-23T12:36:00.432Z,87.46
2024-03-23T12:37:00.446Z,87.46
2024-03-23T12:38:00.449Z,87.46
2024-03-23T12:39:00.470Z,87.46
2024-03-23T12:40:00.474Z,87.46
2024-03-23T12:41:00.478Z,87.87
2024-03-23T12:42:00.483Z,87.87
2024-03-23T12:43:00.485Z,86.74
2024-03-23T12:44:00.494Z,86.74
2024-03-23T12:45:00.547Z,87.87
2024-03-23T12:46:00.593Z,86.78
2024-03-23T12:47:00.517Z,86.78
2024-03-23T12:48:00.553Z,88.02
2024-03-23T12:49:00.537Z,88.02
2024-03-23T12:50:00.545Z,88.02
2024-03-23T12:51:00.575Z,88.02
2024-03-23T12:52:00.566Z,88.02
2024-03-23T12:53:00.599Z,88.02